Huvudsida
METAR-TAF:

METAR-TAF

Flygplatser :

Karachi, Pakistan

latitud: 24-54N, longitud: 067-08E, höjd: 21 m

Aktuellt väderrapport

Denna rapport gjordes för 30 minuter sedan, klockan 08:25 UTC
Vind 10 kt från sydväst
Temperatur 34°C
Fuktighet 44%
Tryck 1007 hPa
Sikt: 5000 m
torrdis

METAR: OPKC 250825Z 23010KT 5000 HZ NSC 34/20 Q1007 TEMPO 23010G25KT

Tid: 13:55 (08:55 UTC)

Väderprognos

Denna rapport gjordes för 4 timmar och 55 minuter sedan, klockan 04:00 UTC
Prognos gäller från 25 kl. 06 UTC till 26 kl. 12 UTC
Vind 10 kt från väst i byarna ända upp till 20 kt
Sikt: 6000 m
Från 25 kl. 1900 UTC
Vind 10 kt från väst
Sikt: 6000 m
Temporärt
från 26 kl. 01 UTC till 26 kl. 04 UTC
Vind 8 kt från väst
Sikt: 5000 m
torrdis
Från 26 kl. 0600 UTC
Vind 8 kt från väst/sydväst i byarna ända upp till 18 kt
Sikt: 6000 m

TAF: OPKC 250400Z 2506/2612 26010G20KT 6000 NSC FM251900 27010KT 6000 NSC TEMPO 2601/2604 28008KT 5000 HZ NSC FM260600 24008G18KT 6000 NSC

Aktuella väderrapporter och prognoser från 4000 flygplatser (METAR- och TAF-rapporter).

De tillgängliga stationerna syns som gula och röda prickar på kartan.

För musen över prickarna för att se namnen på stationerna.

Klicka sedan för att få väderrapporter och prognoser.

För att ändra kartan: Klicka på de gröna knapparna med ett svart kors på för att zooma in; den gröna knappen med ett streck på för att zooma ut; eller på de gröna pilarna för angränsande kartor.


METAR-TAF: